Time,TemperatureF,DewpointF,PressureIn,WindDirection,WindDirectionDegrees,WindSpeedMPH,WindSpeedGustMPH,Humidity,HourlyPrecipIn,Conditions,Clouds,dailyrainin,SoftwareType,DateUTC
2013-05-28 00:01:00,55.8,45.4,29.35,ENE,73,0.0,0.0,68,0.00,,BKN,0.00,VWS V13.01,2013-05-28 04:01:00,
2013-05-28 00:06:00,55.6,45.2,29.35,ENE,73,0.0,0.0,68,0.00,,BKN,0.00,VWS V13.01,2013-05-28 04:06:00,
2013-05-28 00:11:00,55.6,45.6,29.35,ENE,73,0.0,0.0,69,0.00,,BKN,0.00,VWS V13.01,2013-05-28 04:11:00,
2013-05-28 00:16:00,55.6,45.6,29.35,ENE,74,0.0,0.0,69,0.00,,BKN,0.00,VWS V13.01,2013-05-28 04:16:00,
2013-05-28 00:21:00,55.6,45.6,29.35,ENE,73,0.0,0.0,69,0.00,,BKN,0.00,VWS V13.01,2013-05-28 04:21:00,
2013-05-28 00:26:00,55.6,45.6,29.35,ENE,73,0.0,0.0,69,0.00,,BKN,0.00,VWS V13.01,2013-05-28 04:26:00,
2013-05-28 00:31:00,55.4,45.8,29.35,ENE,74,0.0,0.0,70,0.00,,BKN,0.00,VWS V13.01,2013-05-28 04:31:00,
2013-05-28 00:36:00,55.2,45.6,29.35,ENE,73,0.0,0.0,70,0.00,,BKN,0.00,VWS V13.01,2013-05-28 04:36:00,
2013-05-28 00:41:00,55.0,45.8,29.35,ENE,73,0.0,0.0,71,0.00,,BKN,0.00,VWS V13.01,2013-05-28 04:41:00,
2013-05-28 00:46:00,55.0,45.8,29.35,ENE,73,0.0,0.0,71,0.00,,BKN,0.00,VWS V13.01,2013-05-28 04:46:00,
2013-05-28 00:51:00,54.9,45.7,29.35,ENE,73,0.0,0.0,71,0.00,,BKN,0.00,VWS V13.01,2013-05-28 04:51:00,
2013-05-28 00:56:00,54.7,45.5,29.32,ENE,74,0.0,0.0,71,0.00,,BKN,0.00,VWS V13.01,2013-05-28 04:56:00,
2013-05-28 01:01:00,54.5,45.3,29.32,ENE,73,0.0,0.0,71,0.00,,BKN,0.00,VWS V13.01,2013-05-28 05:01:00,
2013-05-28 01:06:00,54.3,45.1,29.32,ENE,74,0.0,0.0,71,0.00,,BKN,0.00,VWS V13.01,2013-05-28 05:06:00,
2013-05-28 01:11:00,53.8,44.6,29.32,ENE,74,0.0,0.0,71,0.00,,BKN,0.00,VWS V13.01,2013-05-28 05:11:00,
2013-05-28 01:16:00,53.6,44.8,29.32,ENE,73,0.0,0.0,72,0.00,,BKN,0.00,VWS V13.01,2013-05-28 05:16:00,
2013-05-28 01:21:00,53.4,44.6,29.32,ENE,73,0.0,0.0,72,0.00,,BKN,0.00,VWS V13.01,2013-05-28 05:21:00,
2013-05-28 01:26:00,53.2,44.5,29.32,ENE,74,0.0,0.0,72,0.00,,BKN,0.00,VWS V13.01,2013-05-28 05:26:00,
2013-05-28 01:31:00,53.1,44.3,29.32,ENE,73,0.0,0.0,72,0.00,,BKN,0.00,VWS V13.01,2013-05-28 05:31:00,
2013-05-28 01:36:00,52.9,44.5,29.32,ENE,73,0.0,0.0,73,0.00,,BKN,0.00,VWS V13.01,2013-05-28 05:36:00,
2013-05-28 01:41:00,52.7,44.3,29.32,ENE,73,0.0,0.0,73,0.00,,BKN,0.00,VWS V13.01,2013-05-28 05:41:00,
2013-05-28 01:46:00,52.5,44.1,29.32,ENE,73,0.0,0.0,73,0.00,,BKN,0.00,VWS V13.01,2013-05-28 05:46:00,
2013-05-28 01:51:00,52.5,44.5,29.32,ENE,73,0.0,0.0,74,0.00,,BKN,0.00,VWS V13.01,2013-05-28 05:51:00,
2013-05-28 01:56:00,52.7,44.7,29.32,ENE,74,0.0,0.0,74,0.00,,BKN,0.00,VWS V13.01,2013-05-28 05:56:00,
2013-05-28 02:01:00,52.7,44.7,29.32,ENE,73,0.0,0.0,74,0.00,,BKN,0.00,VWS V13.01,2013-05-28 06:01:00,
2013-05-28 02:05:00,52.5,44.5,29.32,ENE,73,0.0,0.0,74,0.00,,BKN,0.00,VWS V13.01,2013-05-28 06:05:00,
2013-05-28 02:10:00,52.5,44.5,29.32,ENE,73,0.0,0.0,74,0.00,,BKN,0.00,VWS V13.01,2013-05-28 06:10:00,
2013-05-28 02:15:00,52.5,44.8,29.32,ENE,73,0.0,0.0,75,0.00,,BKN,0.00,VWS V13.01,2013-05-28 06:15:00,
2013-05-28 02:20:00,52.5,44.8,29.32,ENE,73,0.0,0.0,75,0.00,,BKN,0.00,VWS V13.01,2013-05-28 06:20:00,
2013-05-28 02:25:00,52.5,44.8,29.32,ENE,73,0.0,0.0,75,0.00,,BKN,0.00,VWS V13.01,2013-05-28 06:25:00,
2013-05-28 02:30:00,52.3,44.7,29.32,ENE,74,0.0,0.0,75,0.00,,BKN,0.00,VWS V13.01,2013-05-28 06:30:00,
2013-05-28 02:35:00,52.3,44.7,29.32,ENE,73,0.0,0.0,75,0.00,,BKN,0.00,VWS V13.01,2013-05-28 06:35:00,
2013-05-28 02:40:00,52.3,45.0,29.32,ENE,73,0.0,0.0,76,0.00,,BKN,0.00,VWS V13.01,2013-05-28 06:40:00,
2013-05-28 02:45:00,52.5,45.2,29.32,ENE,74,0.0,0.0,76,0.00,,BKN,0.00,VWS V13.01,2013-05-28 06:45:00,
2013-05-28 02:50:00,52.7,45.4,29.32,ENE,73,0.0,0.0,76,0.00,,BKN,0.00,VWS V13.01,2013-05-28 06:50:00,
2013-05-28 02:55:00,52.9,45.5,29.29,ENE,74,0.0,0.0,76,0.00,,BKN,0.00,VWS V13.01,2013-05-28 06:55:00,
2013-05-28 03:00:00,52.9,45.5,29.29,ENE,74,0.0,0.0,76,0.00,,BKN,0.00,VWS V13.01,2013-05-28 07:00:00,
2013-05-28 03:05:00,52.9,45.9,29.29,ENE,73,0.0,0.0,77,0.00,,BKN,0.00,VWS V13.01,2013-05-28 07:05:00,
2013-05-28 03:10:00,52.9,45.9,29.29,ENE,73,0.0,0.0,77,0.00,,BKN,0.00,VWS V13.01,2013-05-28 07:10:00,
2013-05-28 03:15:00,53.1,46.4,29.29,ENE,73,0.0,0.0,78,0.00,,BKN,0.00,VWS V13.01,2013-05-28 07:15:00,
2013-05-28 03:20:00,53.2,46.6,29.29,ENE,73,0.0,0.0,78,0.00,,BKN,0.00,VWS V13.01,2013-05-28 07:20:00,
2013-05-28 03:25:00,53.1,46.4,29.29,ENE,73,0.0,0.0,78,0.00,,BKN,0.00,VWS V13.01,2013-05-28 07:25:00,
2013-05-28 03:30:00,53.2,46.6,29.29,ENE,73,3.6,3.6,78,0.00,,BKN,0.00,VWS V13.01,2013-05-28 07:30:00,
2013-05-28 03:35:00,53.2,46.9,29.29,ENE,73,3.6,4.0,79,0.00,,BKN,0.00,VWS V13.01,2013-05-28 07:35:00,
2013-05-28 03:40:00,53.2,47.2,29.29,ENE,73,4.0,4.9,80,0.00,,BKN,0.00,VWS V13.01,2013-05-28 07:40:00,
2013-05-28 03:45:00,53.1,47.4,29.29,NW,320,4.0,4.9,81,0.00,,BKN,0.00,VWS V13.01,2013-05-28 07:45:00,
2013-05-28 03:50:00,53.1,47.7,29.29,NW,320,3.1,3.6,82,0.00,,BKN,0.00,VWS V13.01,2013-05-28 07:50:00,
2013-05-28 03:55:00,53.1,47.7,29.29,NW,320,3.6,3.6,82,0.00,,BKN,0.00,VWS V13.01,2013-05-28 07:55:00,
2013-05-28 04:00:00,53.1,47.7,29.29,NW,320,0.0,0.0,82,0.00,,BKN,0.00,VWS V13.01,2013-05-28 08:00:00,
2013-05-28 04:05:00,52.9,47.5,29.29,NW,320,0.0,0.0,82,0.00,,BKN,0.00,VWS V13.01,2013-05-28 08:05:00,
2013-05-28 04:10:00,52.9,47.5,29.29,NW,320,3.1,3.1,82,0.00,,BKN,0.00,VWS V13.01,2013-05-28 08:10:00,
2013-05-28 04:15:00,52.9,47.5,29.29,NW,320,3.6,4.0,82,0.00,,BKN,0.00,VWS V13.01,2013-05-28 08:15:00,
2013-05-28 04:20:00,52.9,47.5,29.29,NW,320,0.0,0.0,82,0.00,,BKN,0.00,VWS V13.01,2013-05-28 08:20:00,
2013-05-28 04:25:00,52.9,47.5,29.29,NW,320,0.0,0.0,82,0.00,,BKN,0.00,VWS V13.01,2013-05-28 08:25:00,
2013-05-28 04:30:00,52.9,47.5,29.29,NW,320,0.0,0.0,82,0.00,,BKN,0.00,VWS V13.01,2013-05-28 08:30:00,
2013-05-28 04:35:00,52.7,47.4,29.29,NW,320,0.0,0.0,82,0.00,,BKN,0.00,VWS V13.01,2013-05-28 08:35:00,
2013-05-28 04:40:00,52.7,47.4,29.29,NW,320,0.0,0.0,82,0.00,,BKN,0.00,VWS V13.01,2013-05-28 08:40:00,
2013-05-28 04:45:00,52.7,47.7,29.29,NW,320,0.0,0.0,83,0.00,,BKN,0.00,VWS V13.01,2013-05-28 08:45:00,
2013-05-28 04:50:00,52.7,47.7,29.29,NW,320,0.0,0.0,83,0.00,,BKN,0.00,VWS V13.01,2013-05-28 08:50:00,
2013-05-28 04:55:00,52.7,47.7,29.29,NW,320,0.0,0.0,83,0.00,,BKN,0.00,VWS V13.01,2013-05-28 08:55:00,
2013-05-28 05:00:00,52.5,47.5,29.29,NW,320,0.0,0.0,83,0.00,,BKN,0.00,VWS V13.01,2013-05-28 09:00:00,
2013-05-28 05:05:00,52.5,47.5,29.29,NW,320,0.0,0.0,83,0.00,,BKN,0.00,VWS V13.01,2013-05-28 09:05:00,
2013-05-28 05:10:00,52.7,47.7,29.29,NW,320,0.0,0.0,83,0.00,,BKN,0.00,VWS V13.01,2013-05-28 09:10:00,
2013-05-28 05:15:00,52.7,47.7,29.29,NW,320,0.0,0.0,83,0.00,,BKN,0.00,VWS V13.01,2013-05-28 09:15:00,
2013-05-28 05:20:00,52.9,47.9,29.29,NW,320,0.0,0.0,83,0.00,,BKN,0.00,VWS V13.01,2013-05-28 09:20:00,
2013-05-28 05:25:00,52.9,47.9,29.29,NW,320,0.0,0.0,83,0.00,,BKN,0.00,VWS V13.01,2013-05-28 09:25:00,
2013-05-28 05:30:00,53.1,48.0,29.29,NW,320,0.0,0.0,83,0.00,,BKN,0.00,VWS V13.01,2013-05-28 09:30:00,
2013-05-28 05:35:00,53.1,48.0,29.29,NW,320,0.0,0.0,83,0.00,,BKN,0.00,VWS V13.01,2013-05-28 09:35:00,
2013-05-28 05:40:00,53.1,48.0,29.29,NW,320,0.0,0.0,83,0.00,,BKN,0.00,VWS V13.01,2013-05-28 09:40:00,
2013-05-28 05:45:00,53.1,48.0,29.29,NW,320,0.0,0.0,83,0.00,,BKN,0.00,VWS V13.01,2013-05-28 09:45:00,
2013-05-28 05:50:00,52.9,48.2,29.29,NW,320,2.7,3.6,84,0.00,,BKN,0.00,VWS V13.01,2013-05-28 09:50:00,
2013-05-28 05:55:00,52.9,48.2,29.29,NW,320,3.1,3.1,84,0.00,,BKN,0.00,VWS V13.01,2013-05-28 09:55:00,
2013-05-28 06:00:00,52.7,48.0,29.29,NW,320,3.1,3.1,84,0.00,,BKN,0.00,VWS V13.01,2013-05-28 10:00:00,
2013-05-28 06:05:00,52.7,48.3,29.29,NW,320,0.0,0.0,85,0.00,,BKN,0.00,VWS V13.01,2013-05-28 10:05:00,
2013-05-28 06:10:00,52.7,48.3,29.29,NW,320,0.0,0.0,85,0.00,,BKN,0.00,VWS V13.01,2013-05-28 10:10:00,
2013-05-28 06:15:00,52.7,48.3,29.29,NW,320,0.0,0.0,85,0.00,,BKN,0.00,VWS V13.01,2013-05-28 10:15:00,
2013-05-28 06:20:00,52.7,48.3,29.29,NW,320,0.0,0.0,85,0.00,,BKN,0.00,VWS V13.01,2013-05-28 10:20:00,
2013-05-28 06:25:00,52.7,48.3,29.29,NW,320,0.0,0.0,85,0.00,,BKN,0.00,VWS V13.01,2013-05-28 10:25:00,
2013-05-28 06:30:00,52.7,48.3,29.29,NW,320,0.0,0.0,85,0.00,,BKN,0.00,VWS V13.01,2013-05-28 10:30:00,
2013-05-28 06:35:00,52.7,48.3,29.29,NW,320,0.0,0.0,85,0.00,,BKN,0.00,VWS V13.01,2013-05-28 10:35:00,
2013-05-28 06:40:00,52.9,48.5,29.29,NW,320,0.0,0.0,85,0.00,,BKN,0.00,VWS V13.01,2013-05-28 10:40:00,
2013-05-28 06:45:00,52.9,48.5,29.29,NW,320,0.0,0.0,85,0.00,,BKN,0.00,VWS V13.01,2013-05-28 10:45:00,
2013-05-28 06:50:00,52.9,48.5,29.29,NW,320,0.0,0.0,85,0.00,,BKN,0.00,VWS V13.01,2013-05-28 10:50:00,
2013-05-28 06:55:00,52.9,48.5,29.29,NW,320,0.0,0.0,85,0.00,,BKN,0.00,VWS V13.01,2013-05-28 10:55:00,
2013-05-28 07:00:00,53.1,48.7,29.29,NW,320,0.0,0.0,85,0.00,,BKN,0.00,VWS V13.01,2013-05-28 11:00:00,
2013-05-28 07:05:00,53.2,49.2,29.29,NW,320,0.0,0.0,86,0.00,,BKN,0.00,VWS V13.01,2013-05-28 11:05:00,
2013-05-28 07:10:00,53.4,49.3,29.29,NW,320,3.1,3.1,86,0.00,,BKN,0.00,VWS V13.01,2013-05-28 11:10:00,
2013-05-28 07:15:00,53.6,49.8,29.29,NW,320,0.0,0.0,87,0.00,,BKN,0.00,VWS V13.01,2013-05-28 11:15:00,
2013-05-28 07:20:00,53.8,50.0,29.29,NW,320,0.0,2.7,87,0.00,,BKN,0.00,VWS V13.01,2013-05-28 11:20:00,
2013-05-28 07:25:00,54.0,50.2,29.29,NW,320,0.0,0.0,87,0.00,,BKN,0.00,VWS V13.01,2013-05-28 11:25:00,
2013-05-28 07:30:00,54.1,50.7,29.29,NW,320,2.7,2.7,88,0.00,,BKN,0.00,VWS V13.01,2013-05-28 11:30:00,
2013-05-28 07:35:00,54.3,50.8,29.29,NW,320,2.7,3.1,88,0.00,,BKN,0.00,VWS V13.01,2013-05-28 11:35:00,
2013-05-28 07:40:00,54.5,51.0,29.29,NW,320,0.0,0.0,88,0.00,,BKN,0.00,VWS V13.01,2013-05-28 11:40:00,
2013-05-28 07:45:00,54.7,51.2,29.29,NW,320,0.0,0.0,88,0.00,,BKN,0.00,VWS V13.01,2013-05-28 11:45:00,
2013-05-28 07:50:00,54.7,51.2,29.29,NW,320,0.0,0.0,88,0.00,,BKN,0.00,VWS V13.01,2013-05-28 11:50:00,
2013-05-28 07:55:00,54.9,51.4,29.29,NW,320,0.0,0.0,88,0.00,,BKN,0.00,VWS V13.01,2013-05-28 11:55:00,
2013-05-28 08:00:00,55.0,51.6,29.29,NW,320,0.0,0.0,88,0.00,,BKN,0.00,VWS V13.01,2013-05-28 12:00:00,
2013-05-28 08:05:00,55.2,51.7,29.29,NW,320,0.0,0.0,88,0.00,,BKN,0.00,VWS V13.01,2013-05-28 12:05:00,
2013-05-28 08:10:00,55.4,51.9,29.29,NW,320,0.0,0.0,88,0.00,,BKN,0.00,VWS V13.01,2013-05-28 12:10:00,
2013-05-28 08:15:00,55.8,52.6,29.29,WNW,292,3.1,4.9,89,0.00,,BKN,0.00,VWS V13.01,2013-05-28 12:15:00,
2013-05-28 08:20:00,56.1,52.9,29.29,WNW,292,0.0,3.1,89,0.00,,BKN,0.00,VWS V13.01,2013-05-28 12:20:00,
2013-05-28 08:25:00,56.7,53.5,29.29,WNW,292,2.7,2.7,89,0.00,,BKN,0.00,VWS V13.01,2013-05-28 12:25:00,
2013-05-28 08:30:00,57.2,54.0,29.29,WNW,290,0.0,0.0,89,0.00,,BKN,0.00,VWS V13.01,2013-05-28 12:30:00,
2013-05-28 08:35:00,57.6,54.3,29.29,WNW,290,0.0,0.0,89,0.00,,BKN,0.00,VWS V13.01,2013-05-28 12:35:00,
2013-05-28 08:40:00,58.1,54.9,29.29,WNW,290,0.0,0.0,89,0.00,,BKN,0.00,VWS V13.01,2013-05-28 12:40:00,
2013-05-28 08:45:00,58.8,55.6,29.29,WNW,290,0.0,0.0,89,0.00,,BKN,0.00,VWS V13.01,2013-05-28 12:45:00,
2013-05-28 08:50:00,59.4,55.8,29.29,WNW,290,0.0,0.0,88,0.00,,BKN,0.00,VWS V13.01,2013-05-28 12:50:00,
2013-05-28 08:54:00,60.1,56.5,29.29,SE,137,2.7,5.4,88,0.00,,BKN,0.00,VWS V13.01,2013-05-28 12:54:00,
2013-05-28 08:59:00,60.6,55.8,29.29,SE,131,0.0,3.1,84,0.00,,BKN,0.00,VWS V13.01,2013-05-28 12:59:00,
2013-05-28 09:04:00,61.5,56.0,29.29,SE,131,3.1,3.1,82,0.00,,BKN,0.00,VWS V13.01,2013-05-28 13:04:00,
2013-05-28 09:09:00,62.2,55.3,29.29,SE,131,0.0,3.1,78,0.00,,BKN,0.00,VWS V13.01,2013-05-28 13:09:00,
2013-05-28 09:14:00,62.8,55.5,29.29,SE,138,0.0,3.1,77,0.00,,BKN,0.00,VWS V13.01,2013-05-28 13:14:00,
2013-05-28 09:19:00,63.0,54.2,29.29,SSW,211,0.0,0.0,73,0.00,,BKN,0.00,VWS V13.01,2013-05-28 13:19:00,
2013-05-28 09:24:00,63.7,54.1,29.29,SE,144,2.7,4.0,71,0.00,,BKN,0.00,VWS V13.01,2013-05-28 13:24:00,
2013-05-28 09:29:00,64.4,53.2,29.29,SE,139,0.0,3.6,67,0.00,,BKN,0.00,VWS V13.01,2013-05-28 13:29:00,
2013-05-28 09:34:00,64.8,52.7,29.29,SSE,162,3.6,3.6,65,0.00,,BKN,0.00,VWS V13.01,2013-05-28 13:34:00,
2013-05-28 09:39:00,64.8,50.1,29.29,SSE,162,3.1,3.6,59,0.00,,BKN,0.00,VWS V13.01,2013-05-28 13:39:00,
2013-05-28 09:44:00,65.1,50.0,29.29,SW,233,0.0,4.0,58,0.00,,BKN,0.00,VWS V13.01,2013-05-28 13:44:00,
2013-05-28 09:49:00,65.7,49.6,29.29,WSW,242,4.0,4.5,56,0.00,,BKN,0.00,VWS V13.01,2013-05-28 13:49:00,
2013-05-28 09:54:00,66.2,49.1,29.29,South,175,3.6,4.5,54,0.00,,BKN,0.00,VWS V13.01,2013-05-28 13:54:00,
2013-05-28 09:59:00,66.7,50.1,29.29,ESE,111,3.6,3.6,55,0.00,,BKN,0.00,VWS V13.01,2013-05-28 13:59:00,
2013-05-28 10:04:00,67.1,49.4,29.29,ENE,74,4.5,4.5,53,0.00,,BKN,0.00,VWS V13.01,2013-05-28 14:04:00,
2013-05-28 10:09:00,67.3,49.1,29.29,SSE,166,3.1,4.5,52,0.00,,BKN,0.00,VWS V13.01,2013-05-28 14:09:00,
2013-05-28 10:14:00,67.5,48.7,29.29,SSE,153,4.0,4.0,51,0.00,,BKN,0.00,VWS V13.01,2013-05-28 14:14:00,
2013-05-28 10:19:00,67.6,49.4,29.29,WSW,238,0.0,3.1,52,0.00,,BKN,0.00,VWS V13.01,2013-05-28 14:19:00,
2013-05-28 10:24:00,67.8,49.0,29.29,SSW,204,4.5,5.8,51,0.00,,BKN,0.00,VWS V13.01,2013-05-28 14:24:00,
2013-05-28 10:29:00,68.0,49.2,29.29,SE,142,4.9,4.9,51,0.00,,BKN,0.00,VWS V13.01,2013-05-28 14:29:00,
2013-05-28 10:34:00,68.4,49.5,29.29,SE,129,6.3,6.3,51,0.00,,BKN,0.00,VWS V13.01,2013-05-28 14:34:00,
2013-05-28 10:39:00,68.9,50.0,29.29,SW,225,2.7,4.0,51,0.00,,BKN,0.00,VWS V13.01,2013-05-28 14:39:00,
2013-05-28 10:44:00,69.4,50.0,29.29,SSE,148,5.8,5.8,50,0.00,,BKN,0.00,VWS V13.01,2013-05-28 14:44:00,
2013-05-28 10:49:00,69.4,49.5,29.29,South,188,2.7,4.5,49,0.00,,BKN,0.00,VWS V13.01,2013-05-28 14:49:00,
2013-05-28 10:54:00,69.6,49.6,29.29,SSE,160,5.4,5.4,49,0.00,,BKN,0.00,VWS V13.01,2013-05-28 14:54:00,
2013-05-28 10:59:00,69.8,50.3,29.29,SE,129,3.1,3.1,50,0.00,,BKN,0.00,VWS V13.01,2013-05-28 14:59:00,
2013-05-28 11:04:00,70.0,51.0,29.29,SW,216,3.1,4.5,51,0.00,,BKN,0.00,VWS V13.01,2013-05-28 15:04:00,
2013-05-28 11:09:00,70.0,50.0,29.29,SSE,151,3.6,5.4,49,0.00,,BKN,0.00,VWS V13.01,2013-05-28 15:09:00,
2013-05-28 11:14:00,70.0,50.5,29.29,South,177,4.0,5.4,50,0.00,,BKN,0.00,VWS V13.01,2013-05-28 15:14:00,
2013-05-28 11:19:00,70.0,50.0,29.29,SSE,155,3.1,4.0,49,0.00,,BKN,0.00,VWS V13.01,2013-05-28 15:19:00,
2013-05-28 11:24:00,70.0,51.0,29.29,ESE,110,4.0,5.4,51,0.00,,BKN,0.00,VWS V13.01,2013-05-28 15:24:00,
2013-05-28 11:29:00,70.2,51.2,29.29,ENE,59,4.9,4.9,51,0.00,,BKN,0.00,VWS V13.01,2013-05-28 15:29:00,
2013-05-28 11:34:00,70.3,52.4,29.29,SSE,162,4.5,5.8,53,0.00,,BKN,0.00,VWS V13.01,2013-05-28 15:34:00,
2013-05-28 11:39:00,70.7,51.7,29.29,ESE,107,4.5,4.9,51,0.00,,BKN,0.00,VWS V13.01,2013-05-28 15:39:00,
2013-05-28 11:44:00,70.9,51.9,29.29,ENE,71,4.5,5.4,51,0.00,,BKN,0.00,VWS V13.01,2013-05-28 15:44:00,
2013-05-28 11:49:00,71.1,52.0,29.29,SE,126,3.1,4.5,51,0.00,,BKN,0.00,VWS V13.01,2013-05-28 15:49:00,
2013-05-28 11:54:00,72.0,52.3,29.26,South,173,3.1,3.6,50,0.00,,BKN,0.00,VWS V13.01,2013-05-28 15:54:00,
2013-05-28 11:59:00,72.9,51.5,29.26,SSE,151,4.5,4.9,47,0.00,,BKN,0.00,VWS V13.01,2013-05-28 15:59:00,
2013-05-28 12:04:00,72.9,51.5,29.26,WNW,298,3.1,4.5,47,0.00,,BKN,0.00,VWS V13.01,2013-05-28 16:04:00,
2013-05-28 12:09:00,73.2,51.2,29.26,East,100,4.5,5.4,46,0.00,,BKN,0.00,VWS V13.01,2013-05-28 16:09:00,
2013-05-28 12:14:00,73.0,51.6,29.26,ESE,113,5.4,6.7,47,0.00,,BKN,0.00,VWS V13.01,2013-05-28 16:14:00,
2013-05-28 12:19:00,73.4,52.0,29.26,SSE,150,5.4,5.4,47,0.00,,BKN,0.00,VWS V13.01,2013-05-28 16:19:00,
2013-05-28 12:24:00,73.9,53.0,29.26,SE,142,6.3,6.3,48,0.00,,BKN,0.00,VWS V13.01,2013-05-28 16:24:00,
2013-05-28 12:29:00,73.9,52.5,29.26,SE,124,3.1,4.5,47,0.00,,BKN,0.00,VWS V13.01,2013-05-28 16:29:00,
2013-05-28 12:34:00,74.1,53.2,29.26,ESE,121,2.7,2.7,48,0.00,,BKN,0.00,VWS V13.01,2013-05-28 16:34:00,
2013-05-28 12:39:00,74.3,52.8,29.26,ENE,64,0.0,0.0,47,0.00,,BKN,0.00,VWS V13.01,2013-05-28 16:39:00,
2013-05-28 12:44:00,74.7,53.1,29.26,South,169,4.9,5.4,47,0.00,,BKN,0.00,VWS V13.01,2013-05-28 16:44:00,
2013-05-28 12:49:00,75.0,52.9,29.26,SE,142,2.7,2.7,46,0.00,,BKN,0.00,VWS V13.01,2013-05-28 16:49:00,
2013-05-28 12:54:00,75.2,53.6,29.26,East,84,3.1,4.0,47,0.00,,BKN,0.00,VWS V13.01,2013-05-28 16:54:00,
2013-05-28 12:59:00,75.4,53.8,29.26,SE,129,4.5,4.5,47,0.00,,BKN,0.00,VWS V13.01,2013-05-28 16:59:00,
2013-05-28 13:04:00,75.6,53.9,29.26,East,100,2.7,3.6,47,0.00,,BKN,0.00,VWS V13.01,2013-05-28 17:04:00,
2013-05-28 13:09:00,75.7,54.1,29.26,SE,143,2.7,3.6,47,0.00,,BKN,0.00,VWS V13.01,2013-05-28 17:09:00,
2013-05-28 13:14:00,75.7,53.5,29.26,SSE,151,3.1,3.1,46,0.00,,BKN,0.00,VWS V13.01,2013-05-28 17:14:00,
2013-05-28 13:19:00,75.9,53.7,29.26,SSE,167,0.0,2.7,46,0.00,,BKN,0.00,VWS V13.01,2013-05-28 17:19:00,
2013-05-28 13:24:00,76.5,54.8,29.26,ESE,112,3.1,4.0,47,0.00,,BKN,0.00,VWS V13.01,2013-05-28 17:24:00,
2013-05-28 13:29:00,77.4,55.6,29.26,SW,231,3.6,3.6,47,0.00,,BKN,0.00,VWS V13.01,2013-05-28 17:29:00,
2013-05-28 13:34:00,78.1,55.6,29.26,NNW,345,0.0,0.0,46,0.00,,BKN,0.00,VWS V13.01,2013-05-28 17:34:00,
2013-05-28 13:39:00,78.8,55.1,29.26,NE,41,2.7,2.7,44,0.00,,BKN,0.00,VWS V13.01,2013-05-28 17:39:00,
2013-05-28 13:44:00,79.2,55.4,29.26,NE,41,2.7,2.7,44,0.00,,BKN,0.00,VWS V13.01,2013-05-28 17:44:00,
2013-05-28 13:49:00,79.3,54.9,29.26,NE,41,2.7,2.7,43,0.00,,BKN,0.00,VWS V13.01,2013-05-28 17:49:00,
2013-05-28 13:54:00,79.5,55.7,29.23,NE,41,2.7,2.7,44,0.00,,BKN,0.00,VWS V13.01,2013-05-28 17:54:00,
2013-05-28 13:59:00,79.7,55.2,29.23,NE,41,2.7,2.7,43,0.00,,BKN,0.00,VWS V13.01,2013-05-28 17:59:00,
2013-05-28 14:04:00,80.2,56.4,29.23,NE,41,2.7,2.7,44,0.00,,BKN,0.00,VWS V13.01,2013-05-28 18:04:00,
2013-05-28 14:09:00,80.1,54.3,29.23,NE,41,2.7,2.7,41,0.00,,BKN,0.00,VWS V13.01,2013-05-28 18:09:00,
2013-05-28 14:14:00,80.6,56.7,29.23,NE,41,2.7,2.7,44,0.00,,BKN,0.00,VWS V13.01,2013-05-28 18:14:00,
2013-05-28 14:19:00,81.1,55.2,29.23,NE,41,2.7,2.7,41,0.00,,BKN,0.00,VWS V13.01,2013-05-28 18:19:00,
2013-05-28 14:24:00,81.3,54.7,29.23,NE,41,2.7,2.7,40,0.00,,BKN,0.00,VWS V13.01,2013-05-28 18:24:00,
2013-05-28 14:29:00,81.1,55.9,29.23,NE,41,2.7,2.7,42,0.00,,BKN,0.00,VWS V13.01,2013-05-28 18:29:00,
2013-05-28 14:33:00,81.1,55.2,29.23,NE,41,2.7,2.7,41,0.00,,BKN,0.00,VWS V13.01,2013-05-28 18:33:00,
2013-05-28 14:38:00,81.0,54.4,29.23,NE,41,2.7,2.7,40,0.00,,BKN,0.00,VWS V13.01,2013-05-28 18:38:00,
2013-05-28 14:43:00,80.6,54.8,29.23,NE,41,2.7,2.7,41,0.00,,BKN,0.00,VWS V13.01,2013-05-28 18:43:00,
2013-05-28 14:48:00,80.6,54.1,29.23,NE,41,2.7,2.7,40,0.00,,BKN,0.00,VWS V13.01,2013-05-28 18:48:00,
2013-05-28 14:53:00,80.2,54.4,29.23,NE,41,2.7,2.7,41,0.00,,BKN,0.00,VWS V13.01,2013-05-28 18:53:00,
2013-05-28 14:58:00,80.4,54.6,29.23,NE,41,2.7,2.7,41,0.00,,BKN,0.00,VWS V13.01,2013-05-28 18:58:00,
2013-05-28 15:03:00,80.1,54.3,29.23,NE,41,2.7,2.7,41,0.00,,BKN,0.00,VWS V13.01,2013-05-28 19:03:00,
2013-05-28 15:08:00,80.1,54.3,29.23,NE,41,2.7,2.7,41,0.00,,BKN,0.00,VWS V13.01,2013-05-28 19:08:00,
2013-05-28 15:13:00,79.7,54.6,29.23,NE,41,2.7,2.7,42,0.00,,BKN,0.00,VWS V13.01,2013-05-28 19:13:00,
2013-05-28 15:18:00,79.3,54.9,29.23,NE,41,2.7,2.7,43,0.00,,BKN,0.00,VWS V13.01,2013-05-28 19:18:00,
2013-05-28 15:23:00,79.3,54.9,29.23,NE,41,2.7,2.7,43,0.00,,BKN,0.00,VWS V13.01,2013-05-28 19:23:00,
2013-05-28 15:28:00,79.7,56.5,29.23,NE,41,2.7,2.7,45,0.00,,BKN,0.00,VWS V13.01,2013-05-28 19:28:00,
2013-05-28 15:33:00,80.2,55.1,29.23,NE,41,2.7,2.7,42,0.00,,BKN,0.00,VWS V13.01,2013-05-28 19:33:00,
2013-05-28 15:38:00,80.6,54.8,29.23,NE,41,2.7,2.7,41,0.00,,BKN,0.00,VWS V13.01,2013-05-28 19:38:00,
2013-05-28 15:43:00,80.2,54.4,29.23,NE,41,2.7,2.7,41,0.00,,BKN,0.00,VWS V13.01,2013-05-28 19:43:00,
2013-05-28 15:48:00,80.4,55.9,29.23,NE,41,2.7,2.7,43,0.00,,BKN,0.00,VWS V13.01,2013-05-28 19:48:00,
2013-05-28 15:53:00,81.0,56.4,29.23,NE,41,2.7,2.7,43,0.00,,BKN,0.00,VWS V13.01,2013-05-28 19:53:00,
2013-05-28 15:58:00,81.3,55.4,29.23,NE,41,2.7,2.7,41,0.00,,BKN,0.00,VWS V13.01,2013-05-28 19:58:00,
2013-05-28 16:03:00,82.0,55.4,29.23,NE,41,2.7,2.7,40,0.00,,BKN,0.00,VWS V13.01,2013-05-28 20:03:00,
2013-05-28 16:08:00,82.0,54.7,29.23,NE,41,2.7,2.7,39,0.00,,BKN,0.00,VWS V13.01,2013-05-28 20:08:00,
2013-05-28 16:13:00,81.9,53.8,29.23,NE,41,2.7,2.7,38,0.00,,BKN,0.00,VWS V13.01,2013-05-28 20:13:00,
2013-05-28 16:18:00,81.0,53.0,29.23,NE,41,2.7,2.7,38,0.00,,BKN,0.00,VWS V13.01,2013-05-28 20:18:00,
2013-05-28 16:23:00,79.7,53.3,29.23,NE,41,2.7,2.7,40,0.00,,BKN,0.00,VWS V13.01,2013-05-28 20:23:00,
2013-05-28 16:28:00,79.3,54.3,29.23,NE,41,2.7,2.7,42,0.00,,BKN,0.00,VWS V13.01,2013-05-28 20:28:00,
2013-05-28 16:33:00,79.3,54.9,29.23,NE,41,2.7,2.7,43,0.00,,BKN,0.00,VWS V13.01,2013-05-28 20:33:00,
2013-05-28 16:38:00,79.5,55.1,29.23,NE,41,2.7,2.7,43,0.00,,BKN,0.00,VWS V13.01,2013-05-28 20:38:00,
2013-05-28 16:43:00,79.7,55.2,29.23,NE,41,2.7,2.7,43,0.00,,BKN,0.00,VWS V13.01,2013-05-28 20:43:00,
2013-05-28 16:48:00,79.5,55.1,29.23,NE,41,2.7,2.7,43,0.00,,BKN,0.00,VWS V13.01,2013-05-28 20:48:00,
2013-05-28 16:53:00,79.2,55.4,29.23,NE,41,2.7,2.7,44,0.00,,BKN,0.00,VWS V13.01,2013-05-28 20:53:00,
2013-05-28 16:58:00,78.8,55.1,29.21,NE,41,2.7,2.7,44,0.00,,BKN,0.00,VWS V13.01,2013-05-28 20:58:00,
2013-05-28 17:03:00,78.4,55.4,29.21,SE,138,5.4,5.4,45,0.00,,BKN,0.00,VWS V13.01,2013-05-28 21:03:00,
2013-05-28 17:08:00,78.3,55.2,29.21,SE,144,4.0,6.7,45,0.00,,BKN,0.00,VWS V13.01,2013-05-28 21:08:00,
2013-05-28 17:13:00,78.3,55.8,29.21,South,178,3.6,4.5,46,0.00,,BKN,0.00,VWS V13.01,2013-05-28 21:13:00,
2013-05-28 17:18:00,78.4,56.0,29.21,South,174,3.1,5.4,46,0.00,,BKN,0.00,VWS V13.01,2013-05-28 21:18:00,
2013-05-28 17:23:00,78.6,56.1,29.21,SSE,148,0.0,3.1,46,0.00,,BKN,0.00,VWS V13.01,2013-05-28 21:23:00,
2013-05-28 17:28:00,78.8,56.9,29.21,South,169,0.0,3.6,47,0.00,,BKN,0.00,VWS V13.01,2013-05-28 21:28:00,
2013-05-28 17:33:00,79.0,56.5,29.21,SE,131,0.0,0.0,46,0.00,,BKN,0.00,VWS V13.01,2013-05-28 21:33:00,
2013-05-28 17:38:00,79.0,57.0,29.21,South,186,3.6,4.0,47,0.00,,BKN,0.00,VWS V13.01,2013-05-28 21:38:00,
2013-05-28 17:43:00,79.0,57.6,29.21,SSW,207,3.1,3.1,48,0.00,,BKN,0.00,VWS V13.01,2013-05-28 21:43:00,
2013-05-28 17:48:00,78.8,57.5,29.21,South,171,3.1,3.1,48,0.00,,BKN,0.00,VWS V13.01,2013-05-28 21:48:00,
2013-05-28 17:53:00,78.6,57.3,29.21,SSE,147,3.6,4.5,48,0.00,,BKN,0.00,VWS V13.01,2013-05-28 21:53:00,
2013-05-28 17:58:00,78.4,56.6,29.21,SSE,148,0.0,0.0,47,0.00,,BKN,0.00,VWS V13.01,2013-05-28 21:58:00,
2013-05-28 18:03:00,78.4,56.6,29.21,SSE,166,0.0,0.0,47,0.00,,BKN,0.00,VWS V13.01,2013-05-28 22:03:00,
2013-05-28 18:08:00,78.4,54.7,29.21,SW,236,3.1,3.1,44,0.00,,BKN,0.00,VWS V13.01,2013-05-28 22:08:00,
2013-05-28 18:13:00,78.4,54.7,29.21,SE,135,3.6,5.4,44,0.00,,BKN,0.00,VWS V13.01,2013-05-28 22:13:00,
2013-05-28 18:18:00,78.4,54.7,29.21,SSW,199,3.1,3.6,44,0.00,,BKN,0.00,VWS V13.01,2013-05-28 22:18:00,
2013-05-28 18:23:00,78.6,55.5,29.21,ESE,107,4.0,4.0,45,0.00,,BKN,0.00,VWS V13.01,2013-05-28 22:23:00,
2013-05-28 18:28:00,78.6,56.7,29.21,ESE,117,0.0,3.1,47,0.00,,BKN,0.00,VWS V13.01,2013-05-28 22:28:00,
2013-05-28 18:33:00,78.4,56.6,29.21,SSE,162,3.6,4.0,47,0.00,,BKN,0.00,VWS V13.01,2013-05-28 22:33:00,
2013-05-28 18:38:00,78.3,55.8,29.21,SSE,152,3.6,4.5,46,0.00,,BKN,0.00,VWS V13.01,2013-05-28 22:38:00,
2013-05-28 18:43:00,77.7,55.9,29.21,SSW,194,3.1,4.0,47,0.00,,BKN,0.00,VWS V13.01,2013-05-28 22:43:00,
2013-05-28 18:48:00,77.4,55.6,29.21,South,170,6.3,6.3,47,0.00,,BKN,0.00,VWS V13.01,2013-05-28 22:48:00,
2013-05-28 18:53:00,77.0,55.2,29.21,ESE,106,4.0,4.9,47,0.00,,BKN,0.00,VWS V13.01,2013-05-28 22:53:00,
2013-05-28 18:58:00,76.5,55.3,29.21,SE,138,0.0,2.7,48,0.00,,BKN,0.00,VWS V13.01,2013-05-28 22:58:00,
2013-05-28 19:03:00,75.9,55.4,29.21,ESE,111,4.9,6.9,49,0.00,,BKN,0.00,VWS V13.01,2013-05-28 23:03:00,
2013-05-28 19:08:00,75.6,55.1,29.21,SE,125,0.0,3.1,49,0.00,,BKN,0.00,VWS V13.01,2013-05-28 23:08:00,
2013-05-28 19:13:00,75.4,56.0,29.21,ENE,74,4.9,4.9,51,0.00,,BKN,0.00,VWS V13.01,2013-05-28 23:13:00,
2013-05-28 19:18:00,74.8,56.0,29.21,SE,124,3.1,4.0,52,0.00,,BKN,0.00,VWS V13.01,2013-05-28 23:18:00,
2013-05-28 19:23:00,74.7,56.4,29.21,SSW,213,2.7,4.5,53,0.00,,BKN,0.00,VWS V13.01,2013-05-28 23:23:00,
2013-05-28 19:28:00,74.3,55.6,29.21,ESE,118,0.0,0.0,52,0.00,,BKN,0.00,VWS V13.01,2013-05-28 23:28:00,
2013-05-28 19:33:00,74.1,55.9,29.21,East,95,3.6,3.6,53,0.00,,BKN,0.00,VWS V13.01,2013-05-28 23:33:00,
2013-05-28 19:38:00,73.9,56.3,29.21,East,98,0.0,0.0,54,0.00,,BKN,0.00,VWS V13.01,2013-05-28 23:38:00,
2013-05-28 19:43:00,73.6,56.4,29.21,East,88,0.0,3.6,55,0.00,,BKN,0.00,VWS V13.01,2013-05-28 23:43:00,
2013-05-28 19:48:00,73.4,56.8,29.21,East,88,0.0,2.7,56,0.00,,BKN,0.00,VWS V13.01,2013-05-28 23:48:00,
2013-05-28 19:53:00,73.2,56.6,29.21,East,88,0.0,2.7,56,0.00,,BKN,0.00,VWS V13.01,2013-05-28 23:53:00,
2013-05-28 19:58:00,73.2,57.1,29.21,ENE,71,0.0,3.1,57,0.00,,BKN,0.00,VWS V13.01,2013-05-28 23:58:00,
2013-05-28 20:03:00,73.0,57.4,29.21,East,94,2.7,2.7,58,0.00,,BKN,0.00,VWS V13.01,2013-05-29 00:03:00,
2013-05-28 20:08:00,73.0,57.4,29.21,ESE,109,4.5,4.5,58,0.00,,BKN,0.00,VWS V13.01,2013-05-29 00:08:00,
2013-05-28 20:13:00,72.9,57.7,29.21,ESE,112,4.5,5.4,59,0.00,,BKN,0.00,VWS V13.01,2013-05-29 00:13:00,
2013-05-28 20:18:00,72.5,57.8,29.21,ESE,106,2.7,3.6,60,0.00,,BKN,0.00,VWS V13.01,2013-05-29 00:18:00,
2013-05-28 20:23:00,72.3,57.7,29.21,ESE,106,3.1,3.1,60,0.00,,BKN,0.00,VWS V13.01,2013-05-29 00:23:00,
2013-05-28 20:28:00,72.0,57.8,29.21,ESE,106,0.0,0.0,61,0.00,,BKN,0.00,VWS V13.01,2013-05-29 00:28:00,
2013-05-28 20:33:00,71.8,57.6,29.21,ESE,106,0.0,0.0,61,0.00,,BKN,0.00,VWS V13.01,2013-05-29 00:33:00,
2013-05-28 20:38:00,71.6,57.9,29.21,SE,138,2.7,3.1,62,0.00,,BKN,0.00,VWS V13.01,2013-05-29 00:38:00,
2013-05-28 20:43:00,71.4,57.7,29.21,SE,139,3.1,3.1,62,0.00,,BKN,0.00,VWS V13.01,2013-05-29 00:43:00,
2013-05-28 20:48:00,71.2,58.0,29.21,ESE,119,0.0,0.0,63,0.00,,BKN,0.00,VWS V13.01,2013-05-29 00:48:00,
2013-05-28 20:53:00,71.1,58.3,29.21,East,101,4.0,4.0,64,0.00,,BKN,0.00,VWS V13.01,2013-05-29 00:53:00,
2013-05-28 20:58:00,70.9,58.1,29.21,ESE,109,5.8,5.8,64,0.00,,BKN,0.00,VWS V13.01,2013-05-29 00:58:00,
2013-05-28 21:03:00,70.7,58.4,29.21,ESE,112,4.9,6.7,65,0.00,,BKN,0.00,VWS V13.01,2013-05-29 01:03:00,
2013-05-28 21:08:00,70.5,58.6,29.21,ESE,104,5.4,5.4,66,0.00,,BKN,0.00,VWS V13.01,2013-05-29 01:08:00,
2013-05-28 21:13:00,70.3,58.5,29.21,SE,130,4.5,4.5,66,0.00,,BKN,0.00,VWS V13.01,2013-05-29 01:13:00,
2013-05-28 21:18:00,70.2,58.7,29.21,East,100,0.0,3.1,67,0.00,,BKN,0.00,VWS V13.01,2013-05-29 01:18:00,
2013-05-28 21:23:00,70.2,58.7,29.21,SE,136,0.0,0.0,67,0.00,,BKN,0.00,VWS V13.01,2013-05-29 01:23:00,
2013-05-28 21:28:00,70.0,58.5,29.21,SSE,150,2.7,2.7,67,0.00,,BKN,0.00,VWS V13.01,2013-05-29 01:28:00,
2013-05-28 21:33:00,69.8,58.8,29.21,ESE,103,2.7,2.7,68,0.00,,BKN,0.00,VWS V13.01,2013-05-29 01:33:00,
2013-05-28 21:38:00,69.6,58.6,29.21,SE,136,3.1,3.1,68,0.00,,BKN,0.00,VWS V13.01,2013-05-29 01:38:00,
2013-05-28 21:43:00,69.4,58.8,29.21,ESE,108,2.7,3.6,69,0.00,,BKN,0.00,VWS V13.01,2013-05-29 01:43:00,
2013-05-28 21:48:00,69.4,59.2,29.21,SE,141,4.0,4.0,70,0.00,,BKN,0.00,VWS V13.01,2013-05-29 01:48:00,
2013-05-28 21:53:00,69.6,59.4,29.21,SSE,154,0.0,0.0,70,0.00,,BKN,0.00,VWS V13.01,2013-05-29 01:53:00,
2013-05-28 21:58:00,69.6,59.0,29.21,SSE,154,0.0,0.0,69,0.00,,BKN,0.00,VWS V13.01,2013-05-29 01:58:00,
2013-05-28 22:03:00,69.4,58.8,29.21,SSE,154,0.0,0.0,69,0.00,,BKN,0.00,VWS V13.01,2013-05-29 02:03:00,
2013-05-28 22:08:00,69.3,58.7,29.21,SSE,153,0.0,0.0,69,0.00,,BKN,0.00,VWS V13.01,2013-05-29 02:08:00,
2013-05-28 22:13:00,69.1,58.5,29.21,SSE,153,0.0,0.0,69,0.00,,BKN,0.00,VWS V13.01,2013-05-29 02:13:00,
2013-05-28 22:18:00,68.9,58.3,29.21,SSE,153,0.0,0.0,69,0.00,,BKN,0.00,VWS V13.01,2013-05-29 02:18:00,
2013-05-28 22:22:00,68.7,58.2,29.21,SSE,154,0.0,0.0,69,0.00,,BKN,0.00,VWS V13.01,2013-05-29 02:22:00,
2013-05-28 22:27:00,68.5,58.0,29.21,SSE,153,0.0,0.0,69,0.00,,BKN,0.00,VWS V13.01,2013-05-29 02:27:00,
2013-05-28 22:32:00,68.5,58.0,29.21,SSE,154,0.0,0.0,69,0.00,,BKN,0.00,VWS V13.01,2013-05-29 02:32:00,
2013-05-28 22:37:00,68.4,58.2,29.21,SSE,153,0.0,0.0,70,0.00,,BKN,0.00,VWS V13.01,2013-05-29 02:37:00,
2013-05-28 22:42:00,68.4,58.2,29.23,SSE,154,0.0,0.0,70,0.00,,BKN,0.00,VWS V13.01,2013-05-29 02:42:00,
2013-05-28 22:47:00,68.4,58.6,29.23,SSE,154,0.0,0.0,71,0.00,,BKN,0.00,VWS V13.01,2013-05-29 02:47:00,
2013-05-28 22:52:00,68.2,58.4,29.23,SSE,153,0.0,0.0,71,0.00,,BKN,0.00,VWS V13.01,2013-05-29 02:52:00,
2013-05-28 22:57:00,68.0,58.3,29.23,SSE,153,0.0,0.0,71,0.00,,BKN,0.00,VWS V13.01,2013-05-29 02:57:00,
2013-05-28 23:02:00,67.8,58.1,29.23,SSE,153,2.7,4.0,71,0.00,,BKN,0.00,VWS V13.01,2013-05-29 03:02:00,
2013-05-28 23:07:00,67.6,58.7,29.23,SSE,153,0.0,0.0,73,0.00,,BKN,0.00,VWS V13.01,2013-05-29 03:07:00,
2013-05-28 23:12:00,67.5,58.9,29.23,South,182,0.0,0.0,74,0.00,,BKN,0.00,VWS V13.01,2013-05-29 03:12:00,
2013-05-28 23:17:00,67.3,59.1,29.23,SW,220,0.0,3.1,75,0.00,,BKN,0.00,VWS V13.01,2013-05-29 03:17:00,
2013-05-28 23:22:00,67.3,59.1,29.23,WNW,300,3.1,4.9,75,0.00,,BKN,0.00,VWS V13.01,2013-05-29 03:22:00,
2013-05-28 23:27:00,66.9,58.8,29.23,WNW,300,0.0,0.0,75,0.00,,BKN,0.00,VWS V13.01,2013-05-29 03:27:00,
2013-05-28 23:32:00,66.7,58.9,29.23,WNW,300,0.0,0.0,76,0.00,,BKN,0.00,VWS V13.01,2013-05-29 03:32:00,
2013-05-28 23:37:00,66.6,58.8,29.23,WNW,300,0.0,0.0,76,0.00,,BKN,0.00,VWS V13.01,2013-05-29 03:37:00,
2013-05-28 23:42:00,66.4,58.6,29.23,WNW,300,0.0,0.0,76,0.00,,BKN,0.00,VWS V13.01,2013-05-29 03:42:00,
2013-05-28 23:47:00,66.4,58.6,29.23,WNW,300,0.0,0.0,76,0.00,,BKN,0.00,VWS V13.01,2013-05-29 03:47:00,
2013-05-28 23:52:00,66.2,58.4,29.23,WNW,300,0.0,0.0,76,0.00,,BKN,0.00,VWS V13.01,2013-05-29 03:52:00,
2013-05-28 23:57:00,66.0,58.2,29.23,WNW,300,0.0,0.0,76,0.00,,BKN,0.00,VWS V13.01,2013-05-29 03:57:00,